Terminal Aerodrome Forecast
Issued by NWS

Home | Current Version | Previous Version | Text Only | Print | Product List | Glossary Off
Versions: 1 2 3 4 5 6 7 8 9 10 11 12 13 14 15 16 17 18 19 20 21 22 23 24 25 26 27 28 29 30 31 32 33 34 35 36 37 38 39 40 41 42 43 44 45 46 47 48 49 50

000
FTUS43 KLOT 241740
TAFGYY
TAF
KGYY 241740Z 2418/2518 21020G30KT P6SM FEW090 FEW250
     FM242300 21014G21KT P6SM SCT090 SCT250
     FM250300 05010KT 6SM BR SCT007 BKN200
     FM250500 05009KT 3SM -SHRA BR SCT004 OVC007
     FM250800 06009KT 2SM -SHRA BR SCT002 OVC004
      TEMPO 2511/2514 1SM -DZ BR OVC003
     FM251500 10012KT 3SM -RADZ BR OVC004=

USA.gov is the U.S. government's official web portal to all federal, state and local government web resources and services.